Terminal Aerodrome Forecast
Issued by NWS

Home | Current Version | Previous Version | Text Only | Print | Product List | Glossary On
Versions: 1 2 3 4 5 6 7 8 9 10 11 12 13
961
FTUS42 KMHX 171723
TAFPGV
TAF
KPGV 171723Z 1718/1818 24005KT P6SM BKN250
     FM172200 VRB02KT P6SM SCT035 BKN050
     FM180900 26004KT P6SM SCT200
      AMD LTD TO CLD VIS AND WIND=

USA.gov is the U.S. government's official web portal to all federal, state and local government web resources and services.